Time;durP1;ratioP1;P1;durP2;ratioP2;P2;SDS_P1;SDS_P2;PMS_P1;PMS_P2;Temp;Humidity;BMP_temperature;BMP_pressure;BME280_temperature;BME280_humidity;BME280_pressure;Samples;Min_cycle;Max_cycle;Signal;HPM_P1;HPM_P2
2023/03/01 00:00:40;;;;;;;23.17;14.25;;;22.90;37.80;;;;;;6263053;27;82859;-57
2023/03/01 00:03:40;;;;;;;23.20;14.35;;;22.80;37.50;;;;;;6271929;27;83528;-54
2023/03/01 00:06:41;;;;;;;23.15;13.85;;;22.80;38.00;;;;;;6255334;27;83432;-54
2023/03/01 00:09:42;;;;;;;20.77;14.27;;;22.80;38.00;;;;;;6233379;27;84158;-54
2023/03/01 00:12:42;;;;;;;25.13;15.23;;;22.80;38.20;;;;;;6271081;27;83202;-52
2023/03/01 00:15:43;;;;;;;24.55;14.48;;;22.80;37.90;;;;;;6262355;27;83007;-51
2023/03/01 00:18:44;;;;;;;22.60;14.35;;;22.70;38.10;;;;;;6253460;27;85913;-49
2023/03/01 00:21:44;;;;;;;27.67;15.65;;;22.80;38.10;;;;;;6271517;27;85251;-52
2023/03/01 00:24:45;;;;;;;22.55;14.95;;;22.70;38.00;;;;;;6271536;27;83092;-53
2023/03/01 00:27:45;;;;;;;23.08;14.90;;;22.70;37.90;;;;;;6272908;27;83665;-52
2023/03/01 00:30:46;;;;;;;22.15;14.52;;;22.70;37.80;;;;;;6268471;27;83000;-51
2023/03/01 00:33:47;;;;;;;22.15;14.23;;;22.70;37.80;;;;;;6252947;27;83621;-59
2023/03/01 00:36:47;;;;;;;22.40;14.43;;;22.70;38.50;;;;;;6253105;27;84775;-60
2023/03/01 00:39:48;;;;;;;22.92;14.38;;;22.70;38.00;;;;;;6281614;27;83260;-59
2023/03/01 00:42:49;;;;;;;24.90;15.32;;;22.70;38.10;;;;;;6276904;27;83965;-58
2023/03/01 00:45:50;;;;;;;25.98;15.32;;;22.70;37.70;;;;;;6272242;27;83970;-58
2023/03/01 00:48:50;;;;;;;22.25;14.48;;;22.70;37.70;;;;;;6276952;27;85308;-59
2023/03/01 00:51:51;;;;;;;23.48;14.65;;;22.70;37.50;;;;;;6257066;27;86003;-51
2023/03/01 00:54:51;;;;;;;28.02;15.25;;;22.70;37.60;;;;;;6275704;27;83286;-51
2023/03/01 00:57:52;;;;;;;21.35;14.00;;;22.70;37.50;;;;;;6256248;27;84358;-53
2023/03/01 01:00:52;;;;;;;24.83;15.48;;;22.70;38.00;;;;;;6266960;27;83292;-53
2023/03/01 01:03:53;;;;;;;25.63;14.52;;;22.70;37.90;;;;;;6269739;27;85859;-49
2023/03/01 01:06:53;;;;;;;26.50;15.25;;;22.70;37.90;;;;;;6275153;27;91107;-55
2023/03/01 01:09:54;;;;;;;25.73;15.30;;;22.70;37.80;;;;;;6275587;27;83482;-54
2023/03/01 01:12:54;;;;;;;27.45;16.00;;;22.70;37.80;;;;;;6261388;27;85996;-53
2023/03/01 01:15:57;;;;;;;28.40;17.33;;;22.70;37.60;;;;;;6272010;27;84621;-49
2023/03/01 01:18:57;;;;;;;27.75;16.90;;;22.70;37.30;;;;;;6234830;27;86038;-53
2023/03/01 01:21:58;;;;;;;32.03;18.38;;;22.70;37.50;;;;;;6258042;27;85435;-54
2023/03/01 01:24:58;;;;;;;28.90;18.30;;;22.70;37.50;;;;;;6265656;27;89075;-54
2023/03/01 01:27:59;;;;;;;29.08;18.75;;;22.70;37.40;;;;;;6255912;27;85996;-53
2023/03/01 01:31:00;;;;;;;30.92;18.67;;;22.70;37.40;;;;;;6247238;27;86188;-48
2023/03/01 01:34:00;;;;;;;29.58;18.38;;;22.60;37.30;;;;;;6262506;27;83059;-51
2023/03/01 01:37:02;;;;;;;28.77;18.33;;;22.70;37.40;;;;;;6234027;27;84483;-52
2023/03/01 01:40:06;;;;;;;31.15;18.23;;;22.70;37.50;;;;;;6257426;27;85731;-56
2023/03/01 01:43:06;;;;;;;33.75;19.52;;;22.60;37.60;;;;;;6274583;27;83357;-55
2023/03/01 01:46:07;;;;;;;31.17;19.05;;;22.60;37.50;;;;;;6232862;27;86790;-54
2023/03/01 01:49:07;;;;;;;27.65;17.88;;;22.60;37.50;;;;;;6263417;27;83655;-54
2023/03/01 01:52:08;;;;;;;27.35;17.73;;;22.60;37.60;;;;;;6270526;27;83002;-53
2023/03/01 01:55:09;;;;;;;29.92;18.77;;;22.60;37.50;;;;;;6274380;27;83370;-54
2023/03/01 01:58:09;;;;;;;30.95;18.95;;;22.60;37.50;;;;;;6253631;27;84466;-54
2023/03/01 02:01:10;;;;;;;28.95;18.45;;;22.60;37.40;;;;;;6270818;27;83493;-51
2023/03/01 02:04:10;;;;;;;30.15;17.48;;;22.60;37.50;;;;;;6256503;27;83651;-52
2023/03/01 02:07:11;;;;;;;29.83;18.70;;;22.60;37.90;;;;;;6265298;27;83318;-52
2023/03/01 02:10:11;;;;;;;29.55;19.73;;;22.60;37.90;;;;;;6237207;27;84697;-50
2023/03/01 02:13:12;;;;;;;33.03;19.45;;;22.60;37.80;;;;;;6245866;27;85447;-51
2023/03/01 02:16:12;;;;;;;34.20;20.23;;;22.60;37.80;;;;;;6270700;27;83086;-52
2023/03/01 02:19:14;;;;;;;32.55;20.52;;;22.60;37.60;;;;;;6263250;27;84088;-50
2023/03/01 02:22:14;;;;;;;32.45;19.83;;;22.60;37.70;;;;;;6255837;27;84597;-53
2023/03/01 02:25:18;;;;;;;33.38;20.70;;;22.60;37.50;;;;;;6261989;27;82941;-48
2023/03/01 02:28:18;;;;;;;30.52;18.95;;;22.60;37.40;;;;;;6254892;27;86659;-52
2023/03/01 02:34:38;;;;;;;30.73;18.38;;;22.60;38.40;;;;;;6274146;27;83468;-51
2023/03/01 02:37:39;;;;;;;30.58;18.05;;;22.60;39.00;;;;;;6267204;27;82924;-48
2023/03/01 02:40:39;;;;;;;27.25;16.10;;;22.60;39.30;;;;;;6259013;27;85831;-52
2023/03/01 02:43:40;;;;;;;27.52;16.80;;;22.50;39.10;;;;;;6243691;27;86030;-58
2023/03/01 02:46:41;;;;;;;30.05;17.25;;;22.60;39.10;;;;;;6250246;27;85729;-59
2023/03/01 02:49:42;;;;;;;27.83;16.88;;;22.50;39.20;;;;;;6273678;27;84531;-57
2023/03/01 02:52:42;;;;;;;31.73;17.85;;;22.60;39.40;;;;;;6267549;27;83102;-60
2023/03/01 02:55:43;;;;;;;31.05;18.92;;;22.50;39.40;;;;;;6273716;27;83335;-59
2023/03/01 02:58:51;;;;;;;28.88;17.00;;;22.50;39.00;;;;;;6270869;27;83320;-59
2023/03/01 03:01:52;;;;;;;26.67;16.33;;;22.50;39.30;;;;;;6248826;27;84070;-59
2023/03/01 03:04:52;;;;;;;27.02;17.58;;;22.50;39.30;;;;;;6251763;27;84548;-59
2023/03/01 03:07:53;;;;;;;29.70;17.90;;;22.50;39.30;;;;;;6248707;27;85630;-58
2023/03/01 03:10:53;;;;;;;30.08;17.50;;;22.50;39.30;;;;;;6254410;27;86245;-58
2023/03/01 03:13:54;;;;;;;27.60;16.88;;;22.50;38.40;;;;;;6237122;27;86099;-59
2023/03/01 03:16:55;;;;;;;29.92;16.63;;;22.50;38.90;;;;;;6252508;27;85293;-58
2023/03/01 03:19:56;;;;;;;27.60;16.15;;;22.50;38.70;;;;;;6255085;27;86029;-58
2023/03/01 03:22:56;;;;;;;31.08;18.05;;;22.50;38.70;;;;;;6273585;27;83183;-58
2023/03/01 03:25:57;;;;;;;29.75;18.88;;;22.60;38.60;;;;;;6272520;27;84455;-58
2023/03/01 03:28:57;;;;;;;29.67;18.27;;;22.50;38.60;;;;;;6273291;27;83534;-59
2023/03/01 03:31:58;;;;;;;29.25;17.65;;;22.50;38.30;;;;;;6272904;27;84390;-59
2023/03/01 03:34:58;;;;;;;27.23;17.30;;;22.50;38.30;;;;;;6271384;27;85034;-59
2023/03/01 03:38:02;;;;;;;26.80;16.88;;;22.50;38.50;;;;;;6270650;27;83636;-59
2023/03/01 03:41:02;;;;;;;29.27;17.20;;;22.50;38.60;;;;;;6269331;27;83461;-61
2023/03/01 03:44:03;;;;;;;27.13;17.45;;;22.50;38.70;;;;;;6273071;27;82896;-60
2023/03/01 03:47:03;;;;;;;31.75;17.75;;;22.50;38.00;;;;;;6273124;27;83105;-60
2023/03/01 03:50:04;;;;;;;27.50;16.42;;;22.50;38.60;;;;;;6270541;27;83152;-59
2023/03/01 03:53:04;;;;;;;29.73;17.50;;;22.50;38.50;;;;;;6258836;27;83191;-60
2023/03/01 03:56:05;;;;;;;27.83;17.63;;;22.50;38.30;;;;;;6265281;27;85163;-66
2023/03/01 03:59:05;;;;;;;28.27;17.80;;;22.50;38.20;;;;;;6273131;27;84739;-65
2023/03/01 04:02:08;;;;;;;28.55;16.55;;;22.50;38.40;;;;;;6270474;27;83714;-65
2023/03/01 04:05:09;;;;;;;29.05;17.80;;;22.50;38.50;;;;;;6266613;27;83801;-65
2023/03/01 04:08:09;;;;;;;26.38;17.20;;;22.40;38.20;;;;;;6251464;27;84962;-65
2023/03/01 04:11:28;;;;;;;29.15;17.67;;;22.50;38.00;;;;;;6271859;27;83349;-66
2023/03/01 04:14:29;;;;;;;28.73;17.95;;;22.50;38.30;;;;;;6265968;27;83707;-65
2023/03/01 04:17:30;;;;;;;28.27;17.67;;;22.50;37.80;;;;;;6246195;27;83351;-65
2023/03/01 04:20:30;;;;;;;27.10;17.52;;;22.40;37.80;;;;;;6259759;27;84665;-64
2023/03/01 04:23:31;;;;;;;27.27;16.73;;;22.40;38.00;;;;;;6262878;27;82806;-64
2023/03/01 04:26:31;;;;;;;31.23;18.13;;;22.40;38.10;;;;;;6276454;27;82984;-65
2023/03/01 04:29:32;;;;;;;29.02;16.98;;;22.40;37.70;;;;;;6275277;27;84028;-63
2023/03/01 04:32:32;;;;;;;26.50;16.08;;;22.40;37.70;;;;;;6277200;27;83464;-62
2023/03/01 04:35:33;;;;;;;25.75;15.75;;;22.40;38.50;;;;;;6265962;27;83202;-61
2023/03/01 04:38:33;;;;;;;28.48;16.52;;;22.40;38.60;;;;;;6256512;27;83376;-62
2023/03/01 04:41:34;;;;;;;29.05;17.33;;;22.40;38.20;;;;;;6278922;27;82636;-62
2023/03/01 04:44:34;;;;;;;28.05;16.23;;;22.40;38.00;;;;;;6276256;27;83721;-63
2023/03/01 04:47:38;;;;;;;28.88;17.08;;;22.40;37.80;;;;;;6256425;27;83338;-62
2023/03/01 04:50:38;;;;;;;28.70;17.48;;;22.40;37.80;;;;;;6253407;27;83384;-62
2023/03/01 04:53:39;;;;;;;26.17;16.73;;;22.40;37.80;;;;;;6233698;27;85933;-62
2023/03/01 04:56:39;;;;;;;27.27;16.45;;;22.40;37.80;;;;;;6275579;27;83021;-62
2023/03/01 04:59:40;;;;;;;32.22;17.73;;;22.40;37.80;;;;;;6259090;27;82694;-66
2023/03/01 05:02:40;;;;;;;32.47;18.77;;;22.40;37.20;;;;;;6252129;27;83315;-61
2023/03/01 05:05:41;;;;;;;31.60;17.95;;;22.40;37.30;;;;;;6263934;27;83539;-70
2023/03/01 05:08:41;;;;;;;34.13;20.85;;;22.40;37.10;;;;;;6247242;27;84717;-60
2023/03/01 05:11:42;;;;;;;35.92;22.02;;;22.40;36.60;;;;;;6259154;27;85345;-65
2023/03/01 05:14:42;;;;;;;34.17;20.75;;;22.30;36.50;;;;;;6270190;27;83301;-62
2023/03/01 05:17:43;;;;;;;33.05;19.88;;;22.30;36.70;;;;;;6273564;27;82834;-62
2023/03/01 05:20:44;;;;;;;33.67;19.60;;;22.30;37.10;;;;;;6274271;27;88335;-64
2023/03/01 05:23:45;;;;;;;32.88;20.25;;;22.30;36.70;;;;;;6275499;27;82811;-72
2023/03/01 05:26:48;;;;;;;31.75;20.08;;;22.30;36.60;;;;;;6268074;27;83099;-65
2023/03/01 05:29:48;;;;;;;35.03;20.90;;;22.20;36.10;;;;;;6260558;27;83511;-60
2023/03/01 05:32:49;;;;;;;33.03;20.00;;;22.20;36.00;;;;;;6271831;27;83633;-62
2023/03/01 05:35:49;;;;;;;35.35;21.45;;;22.30;36.50;;;;;;6270408;27;83045;-66
2023/03/01 05:38:50;;;;;;;34.75;20.77;;;22.20;36.60;;;;;;6261937;27;84141;-67
2023/03/01 05:41:51;;;;;;;36.33;20.85;;;22.20;37.10;;;;;;6277652;27;83226;-68
2023/03/01 05:44:51;;;;;;;34.15;20.02;;;22.20;37.20;;;;;;6261333;27;84137;-64
2023/03/01 05:47:52;;;;;;;33.30;20.40;;;22.20;37.30;;;;;;6262580;27;84181;-61
2023/03/01 05:50:52;;;;;;;41.55;21.42;;;22.20;37.70;;;;;;6263081;27;83460;-65
2023/03/01 05:53:53;;;;;;;36.03;20.67;;;22.20;38.20;;;;;;6270841;27;85088;-61
2023/03/01 05:56:53;;;;;;;40.00;21.65;;;22.30;38.30;;;;;;6247459;27;88053;-60
2023/03/01 05:59:54;;;;;;;37.75;22.42;;;22.30;38.20;;;;;;6262838;27;83936;-61
2023/03/01 06:02:55;;;;;;;40.10;21.63;;;22.30;38.50;;;;;;6254848;27;86297;-67
2023/03/01 06:05:55;;;;;;;42.65;23.27;;;22.30;38.30;;;;;;6250834;27;85401;-54
2023/03/01 06:08:56;;;;;;;33.88;21.67;;;22.30;38.10;;;;;;6256668;27;85772;-58
2023/03/01 06:11:56;;;;;;;37.70;22.30;;;22.30;38.30;;;;;;6249475;27;83466;-55
2023/03/01 06:14:57;;;;;;;36.90;21.60;;;22.30;38.10;;;;;;6257332;27;84344;-53
2023/03/01 06:17:57;;;;;;;38.40;21.60;;;22.30;38.00;;;;;;6261346;27;83322;-51
2023/03/01 06:20:58;;;;;;;31.58;18.73;;;22.30;38.90;;;;;;6237777;27;83419;-54
2023/03/01 06:23:58;;;;;;;26.42;16.77;;;22.30;39.80;;;;;;6239206;27;83435;-55
2023/03/01 06:26:59;;;;;;;30.13;15.75;;;22.30;40.40;;;;;;6262481;27;83471;-55
2023/03/01 06:29:59;;;;;;;27.35;16.25;;;22.30;40.60;;;;;;6263654;27;84665;-48
2023/03/01 06:33:02;;;;;;;25.02;15.30;;;22.30;40.90;;;;;;6267751;27;83004;-52
2023/03/01 06:36:03;;;;;;;35.55;16.85;;;22.30;41.50;;;;;;6270784;27;83648;-50
2023/03/01 06:39:05;;;;;;;26.73;14.55;;;22.40;42.30;;;;;;6268401;27;85407;-50
2023/03/01 06:42:05;;;;;;;22.48;13.35;;;22.40;42.50;;;;;;6258588;27;83699;-53
2023/03/01 06:45:06;;;;;;;28.10;14.05;;;22.30;42.70;;;;;;6268204;27;82768;-51
2023/03/01 06:48:06;;;;;;;24.20;13.32;;;22.40;43.10;;;;;;6242847;27;83501;-48
2023/03/01 06:51:08;;;;;;;29.73;16.27;;;22.40;43.50;;;;;;6258246;27;84050;-49
2023/03/01 06:54:08;;;;;;;28.05;16.95;;;22.40;43.90;;;;;;6257396;27;84080;-50
2023/03/01 06:57:09;;;;;;;30.75;18.52;;;22.40;43.80;;;;;;6269091;27;83750;-49
2023/03/01 07:00:10;;;;;;;33.47;19.73;;;22.40;44.60;;;;;;6252356;27;84000;-48
2023/03/01 07:03:10;;;;;;;36.50;19.40;;;22.40;44.70;;;;;;6262740;27;83230;-52
2023/03/01 07:06:11;;;;;;;30.33;19.38;;;22.40;45.90;;;;;;6266765;27;84929;-52
2023/03/01 07:09:11;;;;;;;29.17;16.65;;;22.40;46.00;;;;;;6272073;27;83652;-50
2023/03/01 07:12:12;;;;;;;27.85;17.42;;;22.50;45.80;;;;;;6256848;27;84644;-49
2023/03/01 07:15:14;;;;;;;25.23;15.25;;;22.40;45.90;;;;;;6269797;27;83312;-49
2023/03/01 07:18:15;;;;;;;22.90;15.07;;;22.40;46.10;;;;;;6256489;27;83272;-50
2023/03/01 07:21:16;;;;;;;24.60;14.27;;;22.20;46.20;;;;;;6264002;27;84079;-48
2023/03/01 07:24:16;;;;;;;21.88;13.43;;;22.20;46.20;;;;;;6268560;27;84055;-53
2023/03/01 07:27:17;;;;;;;25.48;15.60;;;22.20;47.40;;;;;;6243443;27;86688;-52
2023/03/01 07:30:17;;;;;;;22.80;14.57;;;22.20;46.60;;;;;;6237665;27;84191;-51
2023/03/01 07:33:18;;;;;;;27.08;14.75;;;22.30;46.80;;;;;;6243917;27;84632;-51
2023/03/01 07:36:18;;;;;;;24.60;14.43;;;22.20;46.90;;;;;;6261459;27;86393;-53
2023/03/01 07:39:19;;;;;;;27.38;15.10;;;22.20;47.30;;;;;;6255166;27;88388;-50
2023/03/01 07:42:20;;;;;;;22.08;13.75;;;22.20;47.00;;;;;;6261434;27;84712;-48
2023/03/01 07:45:20;;;;;;;21.35;12.60;;;22.10;47.10;;;;;;6261352;27;85023;-49
2023/03/01 07:48:21;;;;;;;23.42;12.82;;;22.20;47.30;;;;;;6260716;27;82758;-51
2023/03/01 07:51:21;;;;;;;16.48;11.32;;;22.20;47.90;;;;;;6263793;27;83677;-48
2023/03/01 07:54:22;;;;;;;19.52;11.35;;;22.20;48.20;;;;;;6263395;27;84605;-49
2023/03/01 07:57:22;;;;;;;20.42;11.05;;;22.30;48.20;;;;;;6257142;27;83666;-48
2023/03/01 08:00:23;;;;;;;16.58;10.25;;;22.30;48.70;;;;;;6262045;27;86147;-50
2023/03/01 08:03:23;;;;;;;16.88;10.30;;;22.30;48.40;;;;;;6242284;27;83343;-48
2023/03/01 08:06:24;;;;;;;18.25;9.48;;;22.40;48.50;;;;;;6247342;27;83301;-50
2023/03/01 08:09:24;;;;;;;18.17;11.70;;;22.40;49.00;;;;;;6254832;27;83640;-48
2023/03/01 08:12:27;;;;;;;18.10;10.05;;;22.50;48.40;;;;;;6254722;27;82788;-56
2023/03/01 08:15:27;;;;;;;22.00;12.25;;;22.50;49.10;;;;;;6250470;27;86151;-48
2023/03/01 08:18:28;;;;;;;18.75;11.60;;;22.50;48.90;;;;;;6256075;27;83437;-48
2023/03/01 08:21:28;;;;;;;17.33;10.15;;;22.50;48.80;;;;;;6256538;27;83069;-52
2023/03/01 08:24:29;;;;;;;20.67;11.60;;;22.60;49.60;;;;;;6248583;27;83152;-52
2023/03/01 08:27:30;;;;;;;20.40;11.60;;;22.70;48.60;;;;;;6241408;27;83246;-50
2023/03/01 08:30:30;;;;;;;17.88;10.55;;;22.90;48.70;;;;;;6247788;27;87573;-50
2023/03/01 08:33:31;;;;;;;17.10;11.23;;;23.00;48.50;;;;;;6238709;27;87711;-47
2023/03/01 08:36:31;;;;;;;18.60;11.10;;;23.00;48.50;;;;;;6246494;27;83092;-52
2023/03/01 08:39:32;;;;;;;19.15;10.57;;;23.00;48.20;;;;;;6253319;27;87857;-51
2023/03/01 08:42:32;;;;;;;17.75;9.15;;;23.00;48.40;;;;;;6247326;27;88793;-48
2023/03/01 08:45:33;;;;;;;16.13;9.18;;;23.10;48.20;;;;;;6256007;27;82837;-47
2023/03/01 08:48:33;;;;;;;14.50;9.15;;;23.10;48.50;;;;;;6252215;27;85378;-64
2023/03/01 08:51:36;;;;;;;15.88;9.20;;;23.20;48.80;;;;;;6254001;27;83560;-62
2023/03/01 08:54:37;;;;;;;14.02;9.25;;;23.30;48.80;;;;;;6252647;27;81738;-61
2023/03/01 08:57:37;;;;;;;14.35;8.02;;;23.30;48.60;;;;;;6257600;27;81448;-61
2023/03/01 09:00:38;;;;;;;13.70;8.90;;;23.30;49.60;;;;;;6255544;27;80933;-66
2023/03/01 09:03:38;;;;;;;17.77;11.43;;;23.40;48.50;;;;;;6254372;27;80138;-58
2023/03/01 09:06:39;;;;;;;26.27;14.38;;;23.50;47.30;;;;;;6251574;27;83957;-53
2023/03/01 09:09:39;;;;;;;26.23;15.23;;;23.50;45.60;;;;;;6253115;27;83217;-60
2023/03/01 09:12:40;;;;;;;28.58;13.75;;;23.50;45.10;;;;;;6247326;27;87779;-61
2023/03/01 09:15:40;;;;;;;24.58;12.85;;;23.50;45.00;;;;;;6258925;27;85243;-59
2023/03/01 09:18:41;;;;;;;20.48;12.15;;;23.60;45.20;;;;;;6261231;27;83021;-49
2023/03/01 09:21:51;;;;;;;18.63;11.02;;;23.60;45.30;;;;;;6256879;27;84813;-51
2023/03/01 09:24:52;;;;;;;35.83;18.67;;;23.60;45.00;;;;;;6250548;27;85542;-48
2023/03/01 09:27:52;;;;;;;55.33;26.30;;;23.60;45.90;;;;;;6247865;27;84599;-51
2023/03/01 09:30:53;;;;;;;77.72;35.08;;;23.60;45.90;;;;;;6247783;27;85491;-51
2023/03/01 09:33:54;;;;;;;85.20;41.40;;;23.60;46.40;;;;;;6251784;27;87412;-50
2023/03/01 09:36:54;;;;;;;97.85;46.13;;;23.60;46.00;;;;;;6252099;27;89714;-51
2023/03/01 09:39:55;;;;;;;104.03;49.80;;;23.70;46.20;;;;;;6256983;27;84537;-50
2023/03/01 09:42:55;;;;;;;113.57;52.70;;;23.70;46.20;;;;;;6258757;27;83987;-50
2023/03/01 09:45:56;;;;;;;127.22;61.50;;;23.80;46.30;;;;;;6258209;27;84269;-51
2023/03/01 09:48:58;;;;;;;134.25;64.03;;;23.80;46.10;;;;;;6262293;27;84350;-51
2023/03/01 09:51:58;;;;;;;124.15;61.10;;;23.90;46.60;;;;;;6263122;27;88427;-48
2023/03/01 09:54:59;;;;;;;149.25;70.25;;;24.00;46.60;;;;;;6258095;27;83551;-51
2023/03/01 09:57:59;;;;;;;159.27;73.28;;;24.00;46.50;;;;;;6261368;27;87548;-51
2023/03/01 10:01:00;;;;;;;137.07;68.13;;;24.10;46.80;;;;;;6260846;27;83275;-50
2023/03/01 10:04:00;;;;;;;104.50;55.97;;;24.10;45.40;;;;;;6265632;27;83521;-62
2023/03/01 10:07:01;;;;;;;115.78;55.33;;;23.90;39.50;;;;;;6249646;27;88761;-61
2023/03/01 10:10:04;;;;;;;126.18;60.65;;;23.60;36.40;;;;;;6261836;27;83261;-62
2023/03/01 10:13:04;;;;;;;127.38;61.05;;;23.40;35.90;;;;;;6259613;27;83218;-64
2023/03/01 10:16:05;;;;;;;97.03;47.47;;;23.40;38.20;;;;;;6245142;27;86752;-63
2023/03/01 10:19:06;;;;;;;81.97;40.35;;;23.50;41.10;;;;;;6252922;27;87219;-60
2023/03/01 10:22:07;;;;;;;66.13;32.88;;;23.70;42.50;;;;;;6260643;27;83232;-61
2023/03/01 10:25:07;;;;;;;52.83;28.38;;;23.70;43.60;;;;;;6260216;27;83157;-60
2023/03/01 10:28:08;;;;;;;47.30;23.02;;;23.80;43.90;;;;;;6252335;27;90020;-61
2023/03/01 10:31:08;;;;;;;38.35;19.27;;;23.90;45.00;;;;;;6268005;27;83008;-61
2023/03/01 10:34:09;;;;;;;34.42;16.20;;;24.00;45.40;;;;;;6254664;27;83578;-62
2023/03/01 10:37:09;;;;;;;35.22;15.20;;;24.00;45.30;;;;;;6266787;27;83123;-60
2023/03/01 10:40:10;;;;;;;26.02;13.60;;;24.00;46.20;;;;;;6270795;27;84196;-60
2023/03/01 10:43:10;;;;;;;21.88;11.55;;;24.10;46.30;;;;;;6260313;27;83071;-61
2023/03/01 10:46:11;;;;;;;19.67;11.05;;;24.20;46.60;;;;;;6268768;27;83858;-62
2023/03/01 10:49:11;;;;;;;21.48;10.70;;;24.30;46.70;;;;;;6247380;27;89552;-61
2023/03/01 10:52:12;;;;;;;15.90;10.38;;;24.40;46.90;;;;;;6264879;27;85299;-62
2023/03/01 10:55:12;;;;;;;17.08;9.70;;;24.50;47.00;;;;;;6259536;27;82963;-60
2023/03/01 10:58:13;;;;;;;16.80;9.63;;;24.60;46.80;;;;;;6264083;27;83957;-65
2023/03/01 11:01:14;;;;;;;16.27;7.85;;;24.70;46.60;;;;;;6270324;27;88027;-61
2023/03/01 11:04:14;;;;;;;12.90;7.25;;;24.80;46.70;;;;;;6273908;27;80641;-60
2023/03/01 11:07:15;;;;;;;14.80;7.47;;;24.90;46.70;;;;;;6272515;27;80667;-64
2023/03/01 11:10:15;;;;;;;12.60;7.15;;;24.90;46.90;;;;;;6265752;27;81067;-61
2023/03/01 11:13:16;;;;;;;9.65;6.15;;;25.00;46.90;;;;;;6269780;27;80553;-62
2023/03/01 11:16:16;;;;;;;15.70;5.82;;;25.00;47.00;;;;;;6273154;27;80690;-64
2023/03/01 11:19:17;;;;;;;11.80;6.05;;;25.00;47.10;;;;;;6267760;27;80833;-64
2023/03/01 11:22:17;;;;;;;11.15;6.30;;;25.10;47.20;;;;;;6269051;27;80754;-61
2023/03/01 11:25:18;;;;;;;10.55;5.50;;;25.10;47.40;;;;;;6259899;27;82176;-64
2023/03/01 11:28:18;;;;;;;8.73;5.43;;;25.10;47.20;;;;;;6262213;27;80261;-64
2023/03/01 11:31:19;;;;;;;10.98;5.97;;;25.10;47.30;;;;;;6270505;27;80431;-62
2023/03/01 11:34:19;;;;;;;9.13;5.32;;;25.20;47.40;;;;;;6269674;27;80130;-63
2023/03/01 11:37:22;;;;;;;8.90;3.97;;;25.20;47.80;;;;;;6246526;27;85021;-63
2023/03/01 11:40:22;;;;;;;8.88;4.70;;;25.30;47.80;;;;;;6262964;27;83420;-64
2023/03/01 11:43:23;;;;;;;5.78;3.72;;;25.30;48.00;;;;;;6256736;27;85713;-63
2023/03/01 11:46:23;;;;;;;6.97;4.28;;;25.30;48.00;;;;;;6261547;27;80438;-62
2023/03/01 11:49:24;;;;;;;7.47;4.70;;;25.40;48.20;;;;;;6254030;27;81182;-62
2023/03/01 11:52:24;;;;;;;8.05;5.00;;;25.40;48.20;;;;;;6256562;27;80528;-62
2023/03/01 11:55:25;;;;;;;7.55;4.68;;;25.40;48.10;;;;;;6263099;27;80490;-62
2023/03/01 11:58:25;;;;;;;5.68;3.75;;;25.40;48.00;;;;;;6272042;27;80695;-63
2023/03/01 12:01:26;;;;;;;11.55;4.50;;;25.40;48.00;;;;;;6261243;27;80391;-67
2023/03/01 12:04:26;;;;;;;8.02;4.70;;;25.50;48.00;;;;;;6264092;27;82165;-64
2023/03/01 12:07:27;;;;;;;6.80;4.65;;;25.50;47.80;;;;;;6259560;27;80858;-62
2023/03/01 12:10:27;;;;;;;6.53;4.50;;;25.50;47.90;;;;;;6253919;27;83605;-63
2023/03/01 12:13:28;;;;;;;10.88;4.10;;;25.50;48.10;;;;;;6259450;27;80699;-66
2023/03/01 12:16:29;;;;;;;6.95;4.32;;;25.50;48.10;;;;;;6268286;27;82358;-66
2023/03/01 12:19:29;;;;;;;9.57;4.22;;;25.60;48.20;;;;;;6261182;27;80672;-66
2023/03/01 12:22:30;;;;;;;7.00;3.78;;;25.60;48.50;;;;;;6269144;27;85184;-68
2023/03/01 12:25:31;;;;;;;6.63;3.97;;;25.60;48.10;;;;;;6270288;27;86042;-67
2023/03/01 12:28:31;;;;;;;8.63;4.80;;;25.60;48.10;;;;;;6271424;27;83558;-64
2023/03/01 12:31:32;;;;;;;9.77;4.68;;;25.70;48.30;;;;;;6267072;27;80579;-64
2023/03/01 12:34:32;;;;;;;9.32;4.50;;;25.70;48.20;;;;;;6272138;27;81072;-66
2023/03/01 12:37:33;;;;;;;6.72;4.43;;;25.70;48.40;;;;;;6264891;27;80467;-63
2023/03/01 12:40:33;;;;;;;6.05;4.63;;;25.70;48.40;;;;;;6257957;27;83239;-66
2023/03/01 12:43:34;;;;;;;7.82;5.03;;;25.70;48.20;;;;;;6247213;27;80922;-65
2023/03/01 12:46:34;;;;;;;8.23;4.97;;;25.70;48.10;;;;;;6274565;27;80977;-67
2023/03/01 12:49:35;;;;;;;9.48;5.00;;;25.70;48.30;;;;;;6262078;27;82206;-66
2023/03/01 12:52:36;;;;;;;12.48;5.10;;;25.70;48.20;;;;;;6270366;27;80491;-66
2023/03/01 12:55:36;;;;;;;6.93;4.47;;;25.80;48.30;;;;;;6274869;27;80605;-65
2023/03/01 12:58:37;;;;;;;7.88;4.47;;;25.70;48.30;;;;;;6276208;27;83349;-65
2023/03/01 13:01:37;;;;;;;8.32;4.72;;;25.80;48.20;;;;;;6273273;27;82638;-68
2023/03/01 13:04:38;;;;;;;6.78;4.30;;;25.80;48.10;;;;;;6266208;27;86643;-64
2023/03/01 13:07:38;;;;;;;8.07;4.38;;;25.80;48.20;;;;;;6245506;27;80813;-66
2023/03/01 13:10:39;;;;;;;7.15;4.18;;;25.80;48.20;;;;;;6257893;27;80437;-64
2023/03/01 13:13:39;;;;;;;7.47;4.45;;;25.80;48.20;;;;;;6270867;27;81060;-64
2023/03/01 13:16:42;;;;;;;8.55;4.70;;;25.80;48.30;;;;;;6251985;27;83858;-65
2023/03/01 13:19:43;;;;;;;7.50;4.30;;;25.80;48.50;;;;;;6256508;27;81501;-64
2023/03/01 13:22:43;;;;;;;5.97;4.10;;;25.80;49.30;;;;;;6271526;27;80294;-63
2023/03/01 13:25:44;;;;;;;6.38;4.53;;;25.80;48.90;;;;;;6264310;27;80878;-51
2023/03/01 13:28:44;;;;;;;6.25;4.03;;;25.80;48.60;;;;;;6267802;27;80804;-54
2023/03/01 13:31:45;;;;;;;5.60;3.50;;;25.90;48.70;;;;;;6252184;27;80602;-54
2023/03/01 13:34:46;;;;;;;6.25;4.40;;;25.90;48.70;;;;;;6259647;27;80469;-53
2023/03/01 13:37:46;;;;;;;5.57;3.85;;;25.90;48.30;;;;;;6261369;27;80471;-52
2023/03/01 13:40:47;;;;;;;5.43;3.67;;;25.90;48.60;;;;;;6264700;27;81498;-51
2023/03/01 13:43:47;;;;;;;7.32;3.65;;;25.90;48.00;;;;;;6256212;27;85611;-55
2023/03/01 13:46:48;;;;;;;7.30;4.13;;;25.90;47.80;;;;;;6266325;27;80814;-56
2023/03/01 13:49:50;;;;;;;7.20;4.20;;;25.90;47.80;;;;;;6262501;27;80918;-55
2023/03/01 13:52:51;;;;;;;5.75;3.92;;;25.80;47.60;;;;;;6258350;27;80964;-54
2023/03/01 13:55:53;;;;;;;6.95;4.28;;;25.80;47.70;;;;;;6267322;27;83680;-55
2023/03/01 13:58:54;;;;;;;5.65;3.17;;;25.80;47.90;;;;;;6264280;27;82163;-53
2023/03/01 14:01:54;;;;;;;9.38;3.85;;;25.80;48.10;;;;;;6266896;27;81180;-54
2023/03/01 14:04:55;;;;;;;10.80;4.40;;;25.80;47.80;;;;;;6258447;27;80444;-49
2023/03/01 14:07:55;;;;;;;5.78;3.75;;;25.70;47.90;;;;;;6269184;27;80750;-52
2023/03/01 14:10:56;;;;;;;5.75;3.83;;;25.70;47.80;;;;;;6257852;27;81351;-54
2023/03/01 14:13:56;;;;;;;5.68;4.03;;;25.70;48.10;;;;;;6253111;27;80565;-53
2023/03/01 14:16:57;;;;;;;8.10;4.63;;;25.70;48.10;;;;;;6253142;27;87090;-55
2023/03/01 14:19:57;;;;;;;9.70;4.20;;;25.70;48.20;;;;;;6254922;27;85465;-55
2023/03/01 14:22:58;;;;;;;9.52;4.32;;;25.70;48.10;;;;;;6259579;27;80750;-53
2023/03/01 14:25:58;;;;;;;5.90;4.07;;;25.70;47.90;;;;;;6253693;27;80889;-56
2023/03/01 14:28:59;;;;;;;7.25;4.70;;;25.70;48.00;;;;;;6265385;27;80457;-53
2023/03/01 14:31:59;;;;;;;8.85;4.35;;;25.70;47.90;;;;;;6248797;27;83876;-53
2023/03/01 14:35:00;;;;;;;5.45;3.63;;;25.60;48.00;;;;;;6250451;27;81017;-54
2023/03/01 14:38:01;;;;;;;7.43;3.70;;;25.60;48.00;;;;;;6250719;27;80843;-50
2023/03/01 14:41:01;;;;;;;8.40;3.97;;;25.60;48.20;;;;;;6263012;27;80258;-52
2023/03/01 14:44:02;;;;;;;5.45;3.65;;;25.50;48.00;;;;;;6258849;27;80336;-54
2023/03/01 14:47:03;;;;;;;4.63;3.38;;;25.50;48.00;;;;;;6251222;27;80956;-56
2023/03/01 14:50:03;;;;;;;5.60;3.83;;;25.50;48.30;;;;;;6262500;27;81029;-55
2023/03/01 14:53:04;;;;;;;6.53;3.35;;;25.50;48.00;;;;;;6264839;27;80499;-61
2023/03/01 14:56:04;;;;;;;6.18;4.07;;;25.40;48.00;;;;;;6249104;27;86672;-57
2023/03/01 14:59:05;;;;;;;6.90;3.60;;;25.30;48.00;;;;;;6253251;27;80768;-55
2023/03/01 15:02:05;;;;;;;5.22;3.50;;;25.40;48.40;;;;;;6252524;27;82420;-52
2023/03/01 15:05:06;;;;;;;12.15;4.72;;;25.40;48.30;;;;;;6267384;27;82202;-51
2023/03/01 15:08:07;;;;;;;7.70;3.47;;;25.50;48.10;;;;;;6258787;27;81707;-53
2023/03/01 15:11:07;;;;;;;4.63;2.92;;;26.00;47.00;;;;;;6254259;27;81244;-50
2023/03/01 15:14:08;;;;;;;16.48;3.30;;;26.50;46.30;;;;;;6245919;27;84131;-53
2023/03/01 15:17:09;;;;;;;7.47;3.80;;;26.50;47.20;;;;;;6246558;27;81002;-52
2023/03/01 15:20:09;;;;;;;5.03;3.90;;;26.30;47.40;;;;;;6237467;27;81616;-53
2023/03/01 15:23:12;;;;;;;4.57;3.60;;;26.60;47.00;;;;;;6244867;27;85464;-60
2023/03/01 15:26:13;;;;;;;8.55;4.20;;;26.70;46.90;;;;;;6249028;27;82277;-50